UAE863 OOMS-OMDB
Flight info
| Callsign | UAE863 |
|---|---|
| Flight time | 0h 38m |
| Altitude | 20000 |
| Route | MCT T508 SOLUD P574 IMPED |
| Aircraft | B77W/H-SDE1E2E3FGHIJ2J3J4J5M1RWXY/LB1D1 |
Departure
| Time | 2026-04-24 13:50 |
|---|---|
| Airport | Muscat International Airport (OOMS) |
Arrival
| Time | 2026-04-24 14:29 |
|---|---|
| Airport | Dubai International Airport (OMDB) |
| Time | Latitude | Longitude | Altitude | Speed | Heading |
|---|---|---|---|---|---|
| 2026-04-24 13:19 | 23.60410 | 58.28555 | 46 ft | 0 kts | 85° |
| 2026-04-24 13:38 | 23.60409 | 58.28545 | 46 ft | 2 kts | 85° |
| 2026-04-24 13:39 | 23.60407 | 58.28528 | 46 ft | 2 kts | 84° |
| 2026-04-24 13:39 | 23.60406 | 58.28513 | 46 ft | 0 kts | 85° |
| 2026-04-24 13:39 | 23.60405 | 58.28502 | 46 ft | 2 kts | 79° |
| 2026-04-24 13:39 | 23.60401 | 58.28487 | 46 ft | 2 kts | 60° |
| 2026-04-24 13:40 | 23.60392 | 58.28473 | 46 ft | 2 kts | 45° |
| 2026-04-24 13:40 | 23.60381 | 58.28463 | 46 ft | 2 kts | 32° |
| 2026-04-24 13:40 | 23.60367 | 58.28456 | 46 ft | 2 kts | 17° |
| 2026-04-24 13:40 | 23.60353 | 58.28452 | 46 ft | 2 kts | 2° |
| 2026-04-24 13:41 | 23.60344 | 58.28452 | 46 ft | 1 kts | 354° |
| 2026-04-24 13:41 | 23.60342 | 58.28453 | 46 ft | 0 kts | 354° |
| 2026-04-24 13:45 | 23.60347 | 58.28452 | 46 ft | 2 kts | 354° |
| 2026-04-24 13:45 | 23.60393 | 58.28447 | 46 ft | 10 kts | 355° |
| 2026-04-24 13:46 | 23.60480 | 58.28442 | 46 ft | 11 kts | 358° |
| 2026-04-24 13:46 | 23.60531 | 58.28457 | 46 ft | 7 kts | 37° |
| 2026-04-24 13:46 | 23.60551 | 58.28507 | 46 ft | 8 kts | 89° |
| 2026-04-24 13:46 | 23.60552 | 58.28588 | 46 ft | 13 kts | 85° |
| 2026-04-24 13:47 | 23.60562 | 58.28711 | 46 ft | 18 kts | 84° |
| 2026-04-24 13:47 | 23.60577 | 58.28865 | 46 ft | 21 kts | 85° |
| 2026-04-24 13:47 | 23.60588 | 58.29029 | 46 ft | 21 kts | 86° |
| 2026-04-24 13:47 | 23.60598 | 58.29191 | 46 ft | 21 kts | 84° |
| 2026-04-24 13:48 | 23.60614 | 58.29353 | 46 ft | 19 kts | 87° |
| 2026-04-24 13:48 | 23.60623 | 58.29499 | 46 ft | 19 kts | 84° |
| 2026-04-24 13:48 | 23.60637 | 58.29631 | 46 ft | 13 kts | 83° |
| 2026-04-24 13:48 | 23.60683 | 58.29708 | 46 ft | 12 kts | 18° |
| 2026-04-24 13:49 | 23.60768 | 58.29709 | 46 ft | 12 kts | 356° |
| 2026-04-24 13:49 | 23.60849 | 58.29702 | 46 ft | 8 kts | 354° |
| 2026-04-24 13:49 | 23.60886 | 58.29671 | 46 ft | 7 kts | 297° |
| 2026-04-24 13:49 | 23.60895 | 58.29605 | 46 ft | 10 kts | 268° |
| 2026-04-24 13:50 | 23.60889 | 58.29504 | 46 ft | 23 kts | 265° |
| 2026-04-24 13:50 | 23.60849 | 58.29019 | 46 ft | 106 kts | 265° |
| 2026-04-24 13:50 | 23.60762 | 58.27931 | 95 ft | 174 kts | 265° |
| 2026-04-24 13:50 | 23.60635 | 58.26606 | 836 ft | 183 kts | 265° |
| 2026-04-24 13:51 | 23.60504 | 58.25181 | 1572 ft | 196 kts | 265° |
| 2026-04-24 13:51 | 23.60378 | 58.23646 | 2081 ft | 211 kts | 267° |
| 2026-04-24 13:51 | 23.60263 | 58.22028 | 2719 ft | 219 kts | 267° |
| 2026-04-24 13:51 | 23.60133 | 58.20315 | 3238 ft | 235 kts | 266° |
| 2026-04-24 13:52 | 23.60020 | 58.19123 | 3620 ft | 244 kts | 265° |
| 2026-04-24 13:52 | 23.59811 | 58.16575 | 4422 ft | 262 kts | 266° |
| 2026-04-24 13:52 | 23.59645 | 58.14595 | 5155 ft | 269 kts | 266° |
| 2026-04-24 13:52 | 23.59475 | 58.12558 | 5948 ft | 274 kts | 265° |
| 2026-04-24 13:53 | 23.59291 | 58.10469 | 6740 ft | 279 kts | 266° |
| 2026-04-24 13:53 | 23.59131 | 58.08361 | 7482 ft | 285 kts | 265° |
| 2026-04-24 13:53 | 23.58955 | 58.06219 | 8231 ft | 289 kts | 268° |
| 2026-04-24 13:53 | 23.59175 | 58.04055 | 9004 ft | 290 kts | 290° |
| 2026-04-24 13:54 | 23.60197 | 58.02196 | 9748 ft | 293 kts | 314° |
| 2026-04-24 13:54 | 23.61764 | 58.00747 | 10383 ft | 303 kts | 320° |
| 2026-04-24 13:54 | 23.63339 | 57.99136 | 10890 ft | 319 kts | 314° |
| 2026-04-24 13:54 | 23.64926 | 57.97351 | 11393 ft | 337 kts | 314° |
| 2026-04-24 13:55 | 23.66598 | 57.95465 | 12000 ft | 352 kts | 314° |
| 2026-04-24 13:55 | 23.68314 | 57.93542 | 12927 ft | 357 kts | 314° |
| 2026-04-24 13:55 | 23.69972 | 57.91550 | 13952 ft | 360 kts | 309° |
| 2026-04-24 13:55 | 23.71522 | 57.89423 | 14963 ft | 365 kts | 308° |
| 2026-04-24 13:56 | 23.73103 | 57.87222 | 16036 ft | 371 kts | 308° |
| 2026-04-24 13:56 | 23.74686 | 57.85023 | 17118 ft | 374 kts | 308° |
| 2026-04-24 13:56 | 23.76291 | 57.82795 | 18210 ft | 376 kts | 308° |
| 2026-04-24 13:56 | 23.77910 | 57.80547 | 19163 ft | 382 kts | 308° |
| 2026-04-24 13:57 | 23.79544 | 57.78280 | 19700 ft | 383 kts | 308° |
| 2026-04-24 13:57 | 23.81189 | 57.75996 | 19803 ft | 383 kts | 308° |
| 2026-04-24 13:57 | 23.82830 | 57.73717 | 19804 ft | 379 kts | 308° |
| 2026-04-24 13:57 | 23.84463 | 57.71449 | 19805 ft | 379 kts | 307° |
| 2026-04-24 13:58 | 23.86094 | 57.69183 | 19803 ft | 379 kts | 308° |
| 2026-04-24 13:58 | 23.87713 | 57.66931 | 19823 ft | 380 kts | 307° |
| 2026-04-24 13:58 | 23.89348 | 57.64657 | 19794 ft | 380 kts | 307° |
| 2026-04-24 13:58 | 23.90991 | 57.62372 | 19798 ft | 378 kts | 307° |
| 2026-04-24 13:59 | 23.92066 | 57.60875 | 19808 ft | 379 kts | 307° |
| 2026-04-24 13:59 | 23.94229 | 57.57863 | 19782 ft | 378 kts | 307° |
| 2026-04-24 13:59 | 23.95861 | 57.55588 | 19798 ft | 379 kts | 307° |
| 2026-04-24 13:59 | 23.97489 | 57.53319 | 19815 ft | 378 kts | 307° |
| 2026-04-24 14:00 | 23.99096 | 57.51078 | 19831 ft | 378 kts | 307° |
| 2026-04-24 14:00 | 24.00715 | 57.48819 | 19798 ft | 377 kts | 307° |
| 2026-04-24 14:00 | 24.02333 | 57.46560 | 19806 ft | 376 kts | 307° |
| 2026-04-24 14:00 | 24.03953 | 57.44297 | 19792 ft | 377 kts | 307° |
| 2026-04-24 14:01 | 24.05570 | 57.42039 | 19803 ft | 377 kts | 307° |
| 2026-04-24 14:01 | 24.07167 | 57.39806 | 19810 ft | 376 kts | 307° |
| 2026-04-24 14:01 | 24.08783 | 57.37546 | 19802 ft | 376 kts | 307° |
| 2026-04-24 14:01 | 24.10406 | 57.35274 | 19800 ft | 376 kts | 307° |
| 2026-04-24 14:02 | 24.12022 | 57.33012 | 19805 ft | 377 kts | 307° |
| 2026-04-24 14:02 | 24.13632 | 57.30757 | 19799 ft | 376 kts | 307° |
| 2026-04-24 14:02 | 24.15246 | 57.28496 | 19814 ft | 377 kts | 307° |
| 2026-04-24 14:02 | 24.16852 | 57.26244 | 19808 ft | 375 kts | 307° |
| 2026-04-24 14:03 | 24.18451 | 57.24002 | 19810 ft | 376 kts | 307° |
| 2026-04-24 14:03 | 24.20063 | 57.21740 | 19804 ft | 375 kts | 307° |
| 2026-04-24 14:03 | 24.21667 | 57.19488 | 19812 ft | 375 kts | 307° |
| 2026-04-24 14:03 | 24.23262 | 57.17247 | 19808 ft | 375 kts | 307° |
| 2026-04-24 14:04 | 24.24866 | 57.14994 | 19805 ft | 376 kts | 307° |
| 2026-04-24 14:04 | 24.26475 | 57.12732 | 19804 ft | 375 kts | 307° |
| 2026-04-24 14:04 | 24.28086 | 57.10466 | 19806 ft | 375 kts | 307° |
| 2026-04-24 14:04 | 24.29690 | 57.08210 | 19813 ft | 376 kts | 307° |
| 2026-04-24 14:05 | 24.31285 | 57.05965 | 19807 ft | 374 kts | 306° |
| 2026-04-24 14:05 | 24.32902 | 57.03687 | 19807 ft | 376 kts | 306° |
| 2026-04-24 14:05 | 24.34501 | 57.01435 | 19804 ft | 374 kts | 307° |
| 2026-04-24 14:05 | 24.36089 | 56.99196 | 19803 ft | 373 kts | 306° |
| 2026-04-24 14:06 | 24.37697 | 56.96928 | 19812 ft | 374 kts | 306° |
| 2026-04-24 14:06 | 24.39288 | 56.94683 | 19802 ft | 374 kts | 306° |
| 2026-04-24 14:06 | 24.40881 | 56.92435 | 19801 ft | 373 kts | 306° |
| 2026-04-24 14:06 | 24.42481 | 56.90176 | 19804 ft | 373 kts | 307° |
| 2026-04-24 14:07 | 24.44064 | 56.87938 | 19806 ft | 374 kts | 306° |
| 2026-04-24 14:07 | 24.45656 | 56.85689 | 19808 ft | 373 kts | 306° |
| 2026-04-24 14:07 | 24.47250 | 56.83434 | 19805 ft | 376 kts | 306° |
| 2026-04-24 14:07 | 24.48844 | 56.81179 | 19810 ft | 375 kts | 306° |
| 2026-04-24 14:08 | 24.50444 | 56.78915 | 19798 ft | 374 kts | 306° |
| 2026-04-24 14:08 | 24.52050 | 56.76640 | 19804 ft | 374 kts | 306° |
| 2026-04-24 14:08 | 24.53632 | 56.74399 | 19799 ft | 375 kts | 306° |
| 2026-04-24 14:08 | 24.55246 | 56.72115 | 19813 ft | 375 kts | 306° |
| 2026-04-24 14:09 | 24.56829 | 56.69878 | 19812 ft | 374 kts | 306° |
| 2026-04-24 14:09 | 24.58428 | 56.67617 | 19805 ft | 373 kts | 306° |
| 2026-04-24 14:09 | 24.60020 | 56.65365 | 19812 ft | 373 kts | 306° |
| 2026-04-24 14:09 | 24.61619 | 56.63102 | 19799 ft | 373 kts | 306° |
| 2026-04-24 14:10 | 24.62664 | 56.61623 | 19800 ft | 372 kts | 306° |
| 2026-04-24 14:10 | 24.64796 | 56.58602 | 19798 ft | 375 kts | 306° |
| 2026-04-24 14:10 | 24.66387 | 56.56347 | 19821 ft | 374 kts | 306° |
| 2026-04-24 14:10 | 24.67975 | 56.54095 | 19827 ft | 375 kts | 306° |
| 2026-04-24 14:11 | 24.69574 | 56.51826 | 19727 ft | 367 kts | 306° |
| 2026-04-24 14:11 | 24.71113 | 56.49642 | 19370 ft | 361 kts | 306° |
| 2026-04-24 14:11 | 24.74159 | 56.45310 | 18349 ft | 358 kts | 306° |
| 2026-04-24 14:12 | 24.75696 | 56.43123 | 17877 ft | 356 kts | 306° |
| 2026-04-24 14:12 | 24.77185 | 56.41003 | 17389 ft | 355 kts | 306° |
| 2026-04-24 14:12 | 24.78688 | 56.38863 | 16907 ft | 352 kts | 306° |
| 2026-04-24 14:12 | 24.80181 | 56.36728 | 16426 ft | 349 kts | 306° |
| 2026-04-24 14:13 | 24.81624 | 56.34591 | 15960 ft | 347 kts | 305° |
| 2026-04-24 14:13 | 24.83045 | 56.32474 | 15540 ft | 344 kts | 305° |
| 2026-04-24 14:13 | 24.84462 | 56.30368 | 15051 ft | 343 kts | 305° |
| 2026-04-24 14:13 | 24.85869 | 56.28278 | 14412 ft | 337 kts | 305° |
| 2026-04-24 14:14 | 24.87235 | 56.26252 | 14035 ft | 323 kts | 305° |
| 2026-04-24 14:14 | 24.88395 | 56.24188 | 13683 ft | 310 kts | 293° |
| 2026-04-24 14:14 | 24.89960 | 56.19999 | 12931 ft | 288 kts | 290° |
| 2026-04-24 14:15 | 24.90697 | 56.17959 | 12416 ft | 282 kts | 290° |
| 2026-04-24 14:15 | 24.91406 | 56.15998 | 11992 ft | 275 kts | 290° |
| 2026-04-24 14:15 | 24.92106 | 56.14058 | 11643 ft | 268 kts | 289° |
| 2026-04-24 14:15 | 24.92799 | 56.12137 | 11252 ft | 271 kts | 289° |
| 2026-04-24 14:16 | 24.93493 | 56.10209 | 10838 ft | 272 kts | 290° |
| 2026-04-24 14:16 | 24.94187 | 56.08285 | 10581 ft | 267 kts | 290° |
| 2026-04-24 14:16 | 24.94872 | 56.06382 | 10514 ft | 269 kts | 289° |
| 2026-04-24 14:17 | 24.96250 | 56.02551 | 10315 ft | 269 kts | 290° |
| 2026-04-24 14:17 | 24.96936 | 56.00643 | 10193 ft | 268 kts | 290° |
| 2026-04-24 14:17 | 24.98332 | 55.96758 | 9758 ft | 274 kts | 290° |
| 2026-04-24 14:18 | 24.99034 | 55.94803 | 9318 ft | 278 kts | 290° |
| 2026-04-24 14:18 | 24.99746 | 55.92819 | 8964 ft | 277 kts | 290° |
| 2026-04-24 14:18 | 25.00445 | 55.90870 | 8737 ft | 274 kts | 290° |
| 2026-04-24 14:18 | 25.01151 | 55.88902 | 8431 ft | 272 kts | 290° |
| 2026-04-24 14:19 | 25.01606 | 55.87632 | 8221 ft | 272 kts | 290° |
| 2026-04-24 14:19 | 25.02512 | 55.85105 | 7903 ft | 258 kts | 290° |
| 2026-04-24 14:19 | 25.03159 | 55.83299 | 7777 ft | 244 kts | 290° |
| 2026-04-24 14:19 | 25.03759 | 55.81625 | 7699 ft | 226 kts | 290° |
| 2026-04-24 14:20 | 25.04329 | 55.80033 | 7391 ft | 222 kts | 290° |
| 2026-04-24 14:20 | 25.04894 | 55.78453 | 6995 ft | 222 kts | 290° |
| 2026-04-24 14:20 | 25.05453 | 55.76888 | 6636 ft | 220 kts | 290° |
| 2026-04-24 14:20 | 25.06013 | 55.75320 | 6243 ft | 219 kts | 290° |
| 2026-04-24 14:21 | 25.06554 | 55.73755 | 5840 ft | 220 kts | 285° |
| 2026-04-24 14:21 | 25.06706 | 55.72087 | 5535 ft | 216 kts | 274° |
| 2026-04-24 14:21 | 25.06915 | 55.70494 | 5429 ft | 209 kts | 283° |
| 2026-04-24 14:21 | 25.07352 | 55.68984 | 5363 ft | 206 kts | 292° |
| 2026-04-24 14:22 | 25.07954 | 55.67544 | 5284 ft | 205 kts | 297° |
| 2026-04-24 14:22 | 25.08640 | 55.66158 | 5194 ft | 205 kts | 300° |
| 2026-04-24 14:22 | 25.10129 | 55.63425 | 4745 ft | 207 kts | 302° |
| 2026-04-24 14:23 | 25.10896 | 55.62098 | 4501 ft | 207 kts | 302° |
| 2026-04-24 14:23 | 25.11670 | 55.60764 | 4244 ft | 206 kts | 302° |
| 2026-04-24 14:23 | 25.12432 | 55.59433 | 3979 ft | 205 kts | 302° |
| 2026-04-24 14:23 | 25.13183 | 55.58105 | 3731 ft | 201 kts | 302° |
| 2026-04-24 14:24 | 25.13917 | 55.56798 | 3476 ft | 197 kts | 302° |
| 2026-04-24 14:24 | 25.14623 | 55.55535 | 3259 ft | 193 kts | 302° |
| 2026-04-24 14:24 | 25.15327 | 55.54276 | 3019 ft | 193 kts | 302° |
| 2026-04-24 14:24 | 25.16037 | 55.53004 | 2773 ft | 193 kts | 303° |
| 2026-04-24 14:25 | 25.16501 | 55.52173 | 2610 ft | 194 kts | 303° |
| 2026-04-24 14:25 | 25.17429 | 55.50511 | 2284 ft | 180 kts | 303° |
| 2026-04-24 14:25 | 25.18069 | 55.49366 | 2063 ft | 172 kts | 304° |
| 2026-04-24 14:25 | 25.18677 | 55.48278 | 1852 ft | 156 kts | 304° |
| 2026-04-24 14:26 | 25.19219 | 55.47309 | 1606 ft | 144 kts | 304° |
| 2026-04-24 14:26 | 25.19743 | 55.46380 | 1378 ft | 141 kts | 304° |
| 2026-04-24 14:26 | 25.20254 | 55.45463 | 1175 ft | 139 kts | 304° |
| 2026-04-24 14:26 | 25.20758 | 55.44545 | 989 ft | 140 kts | 303° |
| 2026-04-24 14:27 | 25.21269 | 55.43624 | 833 ft | 141 kts | 303° |
| 2026-04-24 14:27 | 25.21776 | 55.42720 | 705 ft | 139 kts | 304° |
| 2026-04-24 14:27 | 25.22291 | 55.41805 | 534 ft | 139 kts | 303° |
| 2026-04-24 14:27 | 25.22794 | 55.40902 | 370 ft | 138 kts | 304° |
| 2026-04-24 14:28 | 25.23302 | 55.40006 | 189 ft | 137 kts | 303° |
| 2026-04-24 14:28 | 25.23799 | 55.39115 | 50 ft | 131 kts | 301° |
| 2026-04-24 14:28 | 25.24188 | 55.38409 | 49 ft | 81 kts | 302° |
| 2026-04-24 14:28 | 25.24435 | 55.37967 | 46 ft | 60 kts | 300° |
| 2026-04-24 14:29 | 25.24636 | 55.37600 | 41 ft | 52 kts | 300° |
| 2026-04-24 14:29 | 25.24777 | 55.37292 | 36 ft | 32 kts | 285° |
| 2026-04-24 14:29 | 25.24789 | 55.37131 | 35 ft | 2 kts | 271° |
| 2026-04-24 14:29 | 25.24790 | 55.37098 | 36 ft | 9 kts | 271° |
| 2026-04-24 14:30 | 25.24791 | 55.37032 | 36 ft | 15 kts | 272° |
| 2026-04-24 14:30 | 25.24815 | 55.36902 | 33 ft | 5 kts | 294° |
| 2026-04-24 14:30 | 25.24819 | 55.36892 | 33 ft | 1 kts | 295° |
| 2026-04-24 14:30 | 25.24852 | 55.36805 | 30 ft | 21 kts | 290° |
| 2026-04-24 14:31 | 25.24908 | 55.36636 | 27 ft | 23 kts | 297° |
| 2026-04-24 14:31 | 25.24988 | 55.36488 | 27 ft | 21 kts | 302° |
| 2026-04-24 14:31 | 25.25065 | 55.36351 | 27 ft | 20 kts | 301° |
| 2026-04-24 14:31 | 25.25137 | 55.36214 | 27 ft | 20 kts | 299° |
| 2026-04-24 14:32 | 25.25208 | 55.36077 | 27 ft | 21 kts | 301° |
| 2026-04-24 14:32 | 25.25287 | 55.35938 | 27 ft | 15 kts | 304° |
| 2026-04-24 14:32 | 25.25340 | 55.35853 | 27 ft | 17 kts | 304° |
| 2026-04-24 14:32 | 25.25420 | 55.35709 | 27 ft | 24 kts | 300° |
| 2026-04-24 14:33 | 25.25466 | 55.35623 | 27 ft | 7 kts | 296° |
| 2026-04-24 14:33 | 25.25449 | 55.35579 | 27 ft | 6 kts | 212° |
| 2026-04-24 14:33 | 25.25403 | 55.35554 | 27 ft | 7 kts | 209° |
| 2026-04-24 14:33 | 25.25356 | 55.35524 | 27 ft | 7 kts | 211° |
| 2026-04-24 14:34 | 25.25332 | 55.35508 | 27 ft | 3 kts | 211° |
| 2026-04-24 14:34 | 25.25322 | 55.35502 | 27 ft | 0 kts | 211° |